createdAt,value
2024-03-12T00:00:39.476Z,97664.03
2024-03-12T00:03:44.249Z,97662.09
2024-03-12T00:06:46.594Z,97671.03
2024-03-12T00:09:48.422Z,97674.88
2024-03-12T00:12:53.132Z,97672.16
2024-03-12T00:15:55.856Z,97677.53
2024-03-12T00:18:57.632Z,97674.72
2024-03-12T00:21:59.294Z,97688.66
2024-03-12T00:25:01.356Z,97683.22
2024-03-12T00:28:07.243Z,97687.31
2024-03-12T00:31:10.284Z,97693.13
2024-03-12T00:34:12.119Z,97694.56
2024-03-12T00:37:13.920Z,97697.88
2024-03-12T00:40:15.683Z,97698.66
2024-03-12T00:43:19.101Z,97704.75
2024-03-12T00:46:22.240Z,97697.59
2024-03-12T00:49:24.010Z,97701.06
2024-03-12T00:52:25.646Z,97707.06
2024-03-12T00:55:29.509Z,97714.94
2024-03-12T00:58:35.079Z,97706.84
2024-03-12T01:01:36.785Z,97719.03
2024-03-12T01:04:41.346Z,97720.69
2024-03-12T01:07:43.063Z,97720.75
2024-03-12T01:10:44.756Z,97723.53
2024-03-12T01:13:48.792Z,97720.88
2024-03-12T01:16:50.444Z,97723.41
2024-03-12T01:19:52.168Z,97718.81
2024-03-12T01:22:55.449Z,97716.25
2024-03-12T01:25:57.233Z,97719.91
2024-03-12T01:29:00.169Z,97725.28
2024-03-12T01:32:01.841Z,97717.25
2024-03-12T01:35:09.887Z,97718.03
2024-03-12T01:38:13.977Z,97718.09
2024-03-12T01:41:16.577Z,97718.22
2024-03-12T01:44:19.621Z,97719.16
2024-03-12T01:47:21.564Z,97720.97
2024-03-12T01:50:25.561Z,97724.53
2024-03-12T01:53:27.307Z,97721.81
2024-03-12T01:56:29.142Z,97719.31
2024-03-12T01:59:32.186Z,97722.19
2024-03-12T02:02:33.824Z,97723.13
2024-03-12T02:05:35.897Z,97723.13
2024-03-12T02:08:37.997Z,97725.97
2024-03-12T02:11:41.410Z,97724.38
2024-03-12T02:14:44.584Z,97727.03
2024-03-12T02:17:46.775Z,97729.69
2024-03-12T02:20:48.477Z,97728.84
2024-03-12T02:23:51.469Z,97732.47
2024-03-12T02:26:54.489Z,97736.13
2024-03-12T02:29:56.344Z,97732.53
2024-03-12T02:32:58.036Z,97736.13
2024-03-12T02:35:59.994Z,97747.72
2024-03-12T02:39:04.944Z,97741.63
2024-03-12T02:42:06.827Z,97739.13
2024-03-12T02:45:08.931Z,97737.28
2024-03-12T02:48:11.005Z,97743.44
2024-03-12T02:51:13.971Z,97744.47
2024-03-12T02:54:17.397Z,97740.19
2024-03-12T02:57:19.058Z,97735.03
2024-03-12T03:00:20.845Z,97739.53
2024-03-12T03:03:25.411Z,97742.44
2024-03-12T03:06:27.214Z,97742.44
2024-03-12T03:09:30.779Z,97755.75
2024-03-12T03:12:32.585Z,97754.91
2024-03-12T03:15:34.300Z,97758.47
2024-03-12T03:18:35.988Z,97749.81
2024-03-12T03:21:37.628Z,97745.41
2024-03-12T03:24:40.824Z,97756.09
2024-03-12T03:27:43.261Z,97751.63
2024-03-12T03:30:45.243Z,97752.50
2024-03-12T03:33:48.671Z,97756.88
2024-03-12T03:36:50.494Z,97767.44
2024-03-12T03:39:54.741Z,97760.19
2024-03-12T03:42:57.830Z,97765.44
2024-03-12T03:45:59.803Z,97766.28
2024-03-12T03:49:01.556Z,97770.09
2024-03-12T03:52:03.383Z,97771.91
2024-03-12T03:55:07.479Z,97775.41
2024-03-12T03:58:09.466Z,97781.94
2024-03-12T04:01:11.884Z,97778.59
2024-03-12T04:04:16.733Z,97780.59
2024-03-12T04:07:20.779Z,97781.63
2024-03-12T04:10:23.892Z,97797.63
2024-03-12T04:13:25.537Z,97806.44
2024-03-12T04:16:27.198Z,97804.72
2024-03-12T04:19:33.204Z,97802.06
2024-03-12T04:22:34.793Z,97806.63
2024-03-12T04:25:37.797Z,97809.34
2024-03-12T04:28:39.984Z,97818.22
2024-03-12T04:31:41.595Z,97810.31
2024-03-12T04:34:43.209Z,97816.59
2024-03-12T04:37:45.704Z,97826.34
2024-03-12T04:40:49.104Z,97828.97
2024-03-12T04:43:50.789Z,97830.03
2024-03-12T04:46:52.470Z,97831.91
2024-03-12T04:49:55.144Z,97831.06
2024-03-12T04:52:56.800Z,97841.66
2024-03-12T04:56:00.668Z,97843.50
2024-03-12T04:59:02.305Z,97838.28
2024-03-12T05:02:04.025Z,97844.50
2024-03-12T05:05:08.720Z,97842.72
2024-03-12T05:08:10.397Z,97849.81
2024-03-12T05:11:15.200Z,97853.31
2024-03-12T05:14:17.300Z,97860.19
2024-03-12T05:17:19.191Z,97864.47
2024-03-12T05:20:24.686Z,97861.69
2024-03-12T05:23:26.758Z,97873.06
2024-03-12T05:26:35.258Z,97876.66
2024-03-12T05:29:44.424Z,97879.31
2024-03-12T05:32:49.483Z,97883.66
2024-03-12T05:35:53.301Z,97888.00
2024-03-12T05:39:05.681Z,97898.63
2024-03-12T05:42:34.836Z,97888.81
2024-03-12T05:45:55.249Z,97894.97
2024-03-12T05:48:56.994Z,97902.78
2024-03-12T05:51:59.227Z,97904.50
2024-03-12T05:55:00.991Z,97907.13
2024-03-12T05:58:05.936Z,97916.00
2024-03-12T06:01:08.242Z,97917.75
2024-03-12T06:04:10.220Z,97919.47
2024-03-12T06:07:13.690Z,97933.50
2024-03-12T06:10:15.972Z,97928.16
2024-03-12T06:13:19.225Z,97934.31
2024-03-12T06:16:21.801Z,97938.69
2024-03-12T06:19:23.514Z,97940.41
2024-03-12T06:22:25.228Z,97935.13
2024-03-12T06:25:27.151Z,97943.91
2024-03-12T06:28:32.337Z,97940.41
2024-03-12T06:31:36.046Z,97944.81
2024-03-12T06:34:37.682Z,97953.63
2024-03-12T06:37:39.316Z,97947.47
2024-03-12T06:40:40.996Z,97957.19
2024-03-12T06:43:44.117Z,97960.66
2024-03-12T06:46:46.954Z,97959.72
2024-03-12T06:49:49.049Z,97961.50
2024-03-12T06:52:52.210Z,97964.97
2024-03-12T06:55:53.885Z,97960.47
2024-03-12T06:58:58.098Z,97973.72
2024-03-12T07:02:00.685Z,97971.06
2024-03-12T07:05:04.131Z,97975.47
2024-03-12T07:08:06.538Z,97976.25
2024-03-12T07:11:09.240Z,97978.91
2024-03-12T07:14:28.507Z,97973.59
2024-03-12T07:17:31.799Z,97979.63
2024-03-12T07:20:35.779Z,97980.38
2024-03-12T07:23:38.014Z,97988.88
2024-03-12T07:26:40.232Z,97985.06
2024-03-12T07:29:44.742Z,97991.97
2024-03-12T07:32:48.265Z,97990.13
2024-03-12T07:35:50.134Z,97993.69
2024-03-12T07:38:51.729Z,97994.47
2024-03-12T07:41:54.149Z,97991.47
2024-03-12T07:44:58.373Z,97991.41
2024-03-12T07:48:00.518Z,98003.06
2024-03-12T07:51:03.411Z,97998.75
2024-03-12T07:54:07.882Z,97995.19
2024-03-12T07:57:09.869Z,97996.91
2024-03-12T08:00:17.884Z,98015.34
2024-03-12T08:03:20.134Z,98016.13
2024-03-12T08:06:22.524Z,98017.06
2024-03-12T08:09:24.430Z,98016.03
2024-03-12T08:12:26.350Z,98022.19
2024-03-12T08:15:29.447Z,98020.47
2024-03-12T08:18:31.290Z,98023.13
2024-03-12T08:21:33.335Z,98024.03
2024-03-12T08:24:35.518Z,98019.69
2024-03-12T08:27:37.221Z,98033.09
2024-03-12T08:30:40.450Z,98031.31
2024-03-12T08:33:42.808Z,98032.16
2024-03-12T08:36:44.838Z,98038.38
2024-03-12T08:39:48.053Z,98037.53
2024-03-12T08:42:57.625Z,98036.59
2024-03-12T08:46:07.744Z,98036.53
2024-03-12T08:49:12.233Z,98050.59
2024-03-12T08:52:14.502Z,98053.22
2024-03-12T08:55:18.024Z,98047.91
2024-03-12T08:58:20.045Z,98050.78
2024-03-12T09:01:23.168Z,98048.19
2024-03-12T09:04:25.250Z,98053.63
2024-03-12T09:07:27.138Z,98059.88
2024-03-12T09:10:28.924Z,98063.41
2024-03-12T09:13:32.402Z,98068.72
2024-03-12T09:16:35.624Z,98073.13
2024-03-12T09:19:37.870Z,98068.63
2024-03-12T09:22:40.667Z,98063.81
2024-03-12T09:25:43.211Z,98068.91
2024-03-12T09:28:44.842Z,98074.09
2024-03-12T09:31:47.850Z,98078.59
2024-03-12T09:34:49.512Z,98082.19
2024-03-12T09:37:51.431Z,98084.19
2024-03-12T09:40:54.316Z,98078.97
2024-03-12T09:43:55.977Z,98083.34
2024-03-12T09:46:59.806Z,98083.22
2024-03-12T09:50:04.868Z,98093.78
2024-03-12T09:53:07.818Z,98099.06
2024-03-12T09:56:09.539Z,98106.25
2024-03-12T09:59:11.404Z,98104.53
2024-03-12T10:02:16.078Z,98114.22
2024-03-12T10:05:17.993Z,98115.00
2024-03-12T10:08:19.804Z,98114.13
2024-03-12T10:11:21.504Z,98115.06
2024-03-12T10:14:25.845Z,98120.22
2024-03-12T10:17:28.851Z,98120.16
2024-03-12T10:20:32.086Z,98117.28
2024-03-12T10:23:35.143Z,98124.06
2024-03-12T10:26:37.154Z,98115.28
2024-03-12T10:29:38.843Z,98126.09
2024-03-12T10:32:42.102Z,98129.78
2024-03-12T10:35:45.548Z,98135.16
2024-03-12T10:38:50.493Z,98129.97
2024-03-12T10:41:55.725Z,98134.28
2024-03-12T10:44:58.636Z,98138.84
2024-03-12T10:48:04.586Z,98142.16
2024-03-12T10:51:06.394Z,98140.56
2024-03-12T10:54:12.948Z,98148.66
2024-03-12T10:57:14.660Z,98149.50
2024-03-12T11:00:23.742Z,98148.69
2024-03-12T11:03:27.492Z,98150.53
2024-03-12T11:06:30.628Z,98152.22
2024-03-12T11:09:33.360Z,98150.19
2024-03-12T11:12:35.214Z,98159.88
2024-03-12T11:15:37.602Z,98160.66
2024-03-12T11:18:40.877Z,98163.22
2024-03-12T11:21:43.178Z,98158.47
2024-03-12T11:24:46.136Z,98160.22
2024-03-12T11:27:47.957Z,98156.50
2024-03-12T11:30:59.548Z,98162.16
2024-03-12T11:34:02.652Z,98165.03
2024-03-12T11:37:13.507Z,98164.38
2024-03-12T11:40:27.975Z,98166.38
2024-03-12T11:43:39.006Z,98163.84
2024-03-12T11:46:45.406Z,98159.53
2024-03-12T11:49:49.954Z,98160.53
2024-03-12T11:52:52.276Z,98166.91
2024-03-12T11:56:02.929Z,98167.78
2024-03-12T11:59:12.061Z,98165.19
2024-03-12T12:02:22.074Z,98179.38
2024-03-12T12:05:28.053Z,98177.75
2024-03-12T12:08:31.523Z,98180.34
2024-03-12T12:11:38.455Z,98188.44
2024-03-12T12:14:41.298Z,98189.63
2024-03-12T12:17:43.931Z,98185.13
2024-03-12T12:20:47.270Z,98193.00
2024-03-12T12:23:49.199Z,98181.28
2024-03-12T12:26:51.247Z,98183.63
2024-03-12T12:29:54.737Z,98182.34
2024-03-12T12:33:00.175Z,98185.72
2024-03-12T12:36:09.470Z,98184.91
2024-03-12T12:39:12.659Z,98188.56
2024-03-12T12:42:15.753Z,98192.22
2024-03-12T12:45:17.697Z,98188.56
2024-03-12T12:48:19.797Z,98189.44
2024-03-12T12:51:26.283Z,98194.75
2024-03-12T12:54:28.926Z,98190.03
2024-03-12T12:57:34.349Z,98196.19
2024-03-12T13:00:41.549Z,98196.19
2024-03-12T13:03:47.798Z,98197.69
2024-03-12T13:06:50.996Z,98195.97
2024-03-12T13:09:53.235Z,98201.28
2024-03-12T13:12:55.142Z,98204.94
2024-03-12T13:16:12.636Z,98202.59
2024-03-12T13:19:14.365Z,98210.59
2024-03-12T13:22:22.783Z,98208.06
2024-03-12T13:25:24.936Z,98210.72
2024-03-12T13:28:26.632Z,98202.69
2024-03-12T13:31:28.289Z,98216.19
2024-03-12T13:34:29.879Z,98217.16
2024-03-12T13:37:33.212Z,98219.81
2024-03-12T13:40:34.791Z,98223.22
2024-03-12T13:43:37.291Z,98218.00
2024-03-12T13:46:43.000Z,98221.50
2024-03-12T13:49:49.043Z,98230.41
2024-03-12T13:52:53.152Z,98229.66
2024-03-12T13:55:55.252Z,98232.31
2024-03-12T13:58:57.190Z,98231.63
2024-03-12T14:01:59.180Z,98230.84
2024-03-12T14:05:02.846Z,98231.97
2024-03-12T14:08:07.615Z,98238.97
2024-03-12T14:11:09.257Z,98239.91
2024-03-12T14:14:11.140Z,98241.78
2024-03-12T14:17:14.055Z,98239.25
2024-03-12T14:20:15.934Z,98239.31
2024-03-12T14:23:19.991Z,98251.75
2024-03-12T14:26:22.359Z,98238.56
2024-03-12T14:29:23.919Z,98254.53
2024-03-12T14:32:25.500Z,98251.94
2024-03-12T14:35:27.191Z,98243.94
2024-03-12T14:38:30.820Z,98244.97
2024-03-12T14:41:33.809Z,98252.22
2024-03-12T14:44:37.068Z,98255.91
2024-03-12T14:47:39.350Z,98251.66
2024-03-12T14:50:42.314Z,98256.09
2024-03-12T14:53:45.736Z,98251.66
2024-03-12T14:56:48.005Z,98257.69
2024-03-12T14:59:49.792Z,98255.91
2024-03-12T15:02:51.444Z,98255.91
2024-03-12T15:05:55.541Z,98258.50
2024-03-12T15:08:59.314Z,98264.72
2024-03-12T15:12:01.682Z,98256.84
2024-03-12T15:15:03.566Z,98256.84
2024-03-12T15:18:05.889Z,98259.59
2024-03-12T15:21:08.658Z,98262.25
2024-03-12T15:24:12.540Z,98258.72
2024-03-12T15:27:16.969Z,98252.59
2024-03-12T15:30:18.624Z,98254.44
2024-03-12T15:33:20.346Z,98251.78
2024-03-12T15:36:22.179Z,98252.47
2024-03-12T15:39:25.323Z,98250.56
2024-03-12T15:42:28.216Z,98239.97
2024-03-12T15:45:29.849Z,98254.03
2024-03-12T15:48:31.513Z,98259.28
2024-03-12T15:51:33.471Z,98261.94
2024-03-12T15:54:38.183Z,98261.06
2024-03-12T15:57:41.656Z,98261.00
2024-03-12T16:00:43.801Z,98261.88
2024-03-12T16:03:45.657Z,98267.19
2024-03-12T16:06:47.993Z,98262.72
2024-03-12T16:09:51.485Z,98265.25
2024-03-12T16:12:53.379Z,98265.31
2024-03-12T16:15:55.263Z,98260.06
2024-03-12T16:18:57.238Z,98261.88
2024-03-12T16:22:01.357Z,98261.09
2024-03-12T16:25:04.728Z,98260.28
2024-03-12T16:28:06.703Z,98263.00
2024-03-12T16:31:09.270Z,98264.78
2024-03-12T16:34:11.126Z,98266.69
2024-03-12T16:37:14.883Z,98260.47
2024-03-12T16:40:18.130Z,98265.81
2024-03-12T16:43:20.047Z,98262.31
2024-03-12T16:46:21.945Z,98262.38
2024-03-12T16:49:23.888Z,98260.66
2024-03-12T16:52:25.766Z,98260.72
2024-03-12T16:55:29.151Z,98260.72
2024-03-12T16:58:31.225Z,98260.59
2024-03-12T17:01:37.553Z,98251.91
2024-03-12T17:04:39.719Z,98262.59
2024-03-12T17:07:42.582Z,98262.69
2024-03-12T17:10:45.944Z,98260.31
2024-03-12T17:13:47.840Z,98263.22
2024-03-12T17:16:51.842Z,98255.44
2024-03-12T17:19:53.871Z,98262.34
2024-03-12T17:22:55.811Z,98268.44
2024-03-12T17:25:59.869Z,98271.97
2024-03-12T17:29:01.873Z,98268.31
2024-03-12T17:32:05.905Z,98271.81
2024-03-12T17:35:10.442Z,98268.31
2024-03-12T17:38:16.422Z,98272.81
2024-03-12T17:41:20.108Z,98268.50
2024-03-12T17:44:22.101Z,98269.59
2024-03-12T17:47:23.706Z,98269.88
2024-03-12T17:50:26.462Z,98266.50
2024-03-12T17:53:28.306Z,98267.56
2024-03-12T17:56:33.308Z,98278.22
2024-03-12T17:59:38.991Z,98277.63
2024-03-12T18:02:40.882Z,98275.03
2024-03-12T18:05:43.088Z,98275.16
2024-03-12T18:08:50.828Z,98272.63
2024-03-12T18:11:54.547Z,98276.34
2024-03-12T18:14:56.217Z,98281.00
2024-03-12T18:17:58.013Z,98271.59
2024-03-12T18:20:59.735Z,98289.00
2024-03-12T18:24:01.800Z,98282.03
2024-03-12T18:27:07.528Z,98279.63
2024-03-12T18:30:10.970Z,98289.56
2024-03-12T18:33:13.771Z,98283.72
2024-03-12T18:36:15.448Z,98284.91
2024-03-12T18:39:18.681Z,98278.88
2024-03-12T18:42:21.690Z,98284.19
2024-03-12T18:45:24.817Z,98282.44
2024-03-12T18:48:31.542Z,98281.59
2024-03-12T18:51:36.166Z,98285.00
2024-03-12T18:54:39.012Z,98289.38
2024-03-12T18:57:43.543Z,98284.03
2024-03-12T19:00:45.718Z,98287.53
2024-03-12T19:03:51.143Z,98294.66
2024-03-12T19:06:53.191Z,98288.56
2024-03-12T19:09:55.336Z,98283.47
2024-03-12T19:12:59.139Z,98293.13
2024-03-12T19:16:01.222Z,98284.22
2024-03-12T19:19:04.413Z,98287.84
2024-03-12T19:22:07.286Z,98292.94
2024-03-12T19:25:10.791Z,98296.38
2024-03-12T19:28:15.334Z,98298.16
2024-03-12T19:31:17.465Z,98291.97
2024-03-12T19:34:19.714Z,98299.06
2024-03-12T19:37:22.878Z,98300.03
2024-03-12T19:40:24.791Z,98295.66
2024-03-12T19:43:29.858Z,98292.34
2024-03-12T19:46:31.795Z,98293.38
2024-03-12T19:49:43.564Z,98299.59
2024-03-12T19:52:48.201Z,98303.41
2024-03-12T19:55:52.353Z,98300.19
2024-03-12T19:58:55.480Z,98290.63
2024-03-12T20:02:00.568Z,98288.91
2024-03-12T20:05:02.351Z,98295.19
2024-03-12T20:08:06.022Z,98297.97
2024-03-12T20:11:11.315Z,98300.75
2024-03-12T20:14:14.377Z,98298.19
2024-03-12T20:17:16.071Z,98293.09
2024-03-12T20:20:22.577Z,98296.78
2024-03-12T20:23:24.192Z,98292.50
2024-03-12T20:26:26.261Z,98295.28
2024-03-12T20:29:32.941Z,98295.41
2024-03-12T20:32:34.553Z,98286.53
2024-03-12T20:35:38.875Z,98290.72
2024-03-12T20:38:42.925Z,98287.25
2024-03-12T20:41:44.591Z,98286.41
2024-03-12T20:44:47.837Z,98288.25
2024-03-12T20:47:49.981Z,98290.97
2024-03-12T20:50:51.800Z,98284.94
2024-03-12T20:53:54.117Z,98283.16
2024-03-12T20:56:58.329Z,98282.34
2024-03-12T21:00:01.909Z,98285.78
2024-03-12T21:03:10.065Z,98279.66
2024-03-12T21:06:13.359Z,98278.75
2024-03-12T21:09:26.912Z,98281.84
2024-03-12T21:12:28.514Z,98282.59
2024-03-12T21:15:31.534Z,98278.97
2024-03-12T21:18:33.138Z,98276.25
2024-03-12T21:21:34.902Z,98276.25
2024-03-12T21:24:37.681Z,98273.53
2024-03-12T21:27:39.470Z,98276.16
2024-03-12T21:30:43.551Z,98271.72
2024-03-12T21:33:45.754Z,98269.06
2024-03-12T21:36:47.412Z,98262.09
2024-03-12T21:39:49.339Z,98260.41
2024-03-12T21:42:51.604Z,98268.34
2024-03-12T21:45:55.107Z,98266.69
2024-03-12T21:48:57.021Z,98260.56
2024-03-12T21:51:59.263Z,98263.19
2024-03-12T21:55:01.739Z,98264.06
2024-03-12T21:58:05.255Z,98258.09
2024-03-12T22:01:08.291Z,98256.44
2024-03-12T22:04:10.014Z,98254.69
2024-03-12T22:07:13.108Z,98255.63
2024-03-12T22:10:15.323Z,98253.19
2024-03-12T22:13:27.912Z,98254.09
2024-03-12T22:16:35.991Z,98258.31
2024-03-12T22:19:39.251Z,98272.34
2024-03-12T22:22:40.847Z,98265.25
2024-03-12T22:25:44.681Z,98261.78
2024-03-12T22:28:48.879Z,98256.53
2024-03-12T22:31:51.900Z,98256.53
2024-03-12T22:34:54.320Z,98260.91
2024-03-12T22:37:57.017Z,98261.88
2024-03-12T22:40:58.988Z,98254.91
2024-03-12T22:44:00.848Z,98256.69
2024-03-12T22:47:08.788Z,98258.41
2024-03-12T22:50:10.967Z,98264.31
2024-03-12T22:53:13.640Z,98273.03
2024-03-12T22:56:18.480Z,98272.13
2024-03-12T22:59:20.544Z,98262.31
2024-03-12T23:02:23.884Z,98267.63
2024-03-12T23:05:28.876Z,98270.25
2024-03-12T23:08:31.110Z,98271.13
2024-03-12T23:11:32.837Z,98260.69
2024-03-12T23:14:35.774Z,98261.50
2024-03-12T23:17:38.905Z,98259.72
2024-03-12T23:20:41.612Z,98251.78
2024-03-12T23:23:45.810Z,98244.72
2024-03-12T23:26:48.154Z,98251.91
2024-03-12T23:29:51.339Z,98245.91
2024-03-12T23:32:59.061Z,98253.88
2024-03-12T23:36:01.083Z,98247.72
2024-03-12T23:39:02.734Z,98251.28
2024-03-12T23:42:04.472Z,98257.13
2024-03-12T23:45:10.086Z,98255.28
2024-03-12T23:48:13.710Z,98258.72
2024-03-12T23:51:15.546Z,98257.69
2024-03-12T23:54:18.528Z,98265.56
2024-03-12T23:57:20.338Z,98263.09
